createdAt,value
2022-10-22T00:00:00.465Z,4.68
2022-10-22T00:02:32.282Z,5.03
2022-10-22T00:05:01.896Z,4.93
2022-10-22T00:07:36.051Z,4.90
2022-10-22T00:10:09.510Z,4.70
2022-10-22T00:12:43.719Z,4.82
2022-10-22T00:15:15.039Z,5.15
2022-10-22T00:17:42.133Z,4.90
2022-10-22T00:20:10.769Z,5.13
2022-10-22T00:22:37.929Z,4.75
2022-10-22T00:25:05.068Z,4.97
2022-10-22T00:27:33.097Z,5.18
2022-10-22T00:30:01.349Z,5.00
2022-10-22T00:32:28.591Z,5.60
2022-10-22T00:34:58.654Z,5.20
2022-10-22T00:37:26.039Z,5.15
2022-10-22T00:39:54.050Z,5.28
2022-10-22T00:42:27.442Z,4.68
2022-10-22T00:45:20.507Z,5.22
2022-10-22T00:48:03.278Z,4.80
2022-10-22T00:50:44.203Z,4.40
2022-10-22T00:53:29.842Z,5.53
2022-10-22T00:55:57.969Z,4.95
2022-10-22T00:58:35.047Z,4.63
2022-10-22T01:01:02.298Z,4.63
2022-10-22T01:03:29.573Z,4.50
2022-10-22T01:06:02.270Z,4.70
2022-10-22T01:08:51.892Z,4.78
2022-10-22T01:11:36.116Z,4.72
2022-10-22T01:14:33.492Z,4.80
2022-10-22T01:17:09.727Z,4.75
2022-10-22T01:20:16.789Z,4.70
2022-10-22T01:23:10.018Z,4.47
2022-10-22T01:25:46.843Z,4.50
2022-10-22T01:28:35.493Z,4.60
2022-10-22T01:31:03.559Z,4.38
2022-10-22T01:33:51.615Z,4.32
2022-10-22T01:36:23.800Z,4.47
2022-10-22T01:41:21.480Z,4.85
2022-10-22T01:43:51.223Z,4.65
2022-10-22T01:46:23.015Z,4.72
2022-10-22T01:49:19.864Z,4.20
2022-10-22T01:52:14.682Z,4.72
2022-10-22T01:55:10.698Z,4.25
2022-10-22T01:57:56.131Z,5.15
2022-10-22T02:00:29.545Z,4.05
2022-10-22T02:03:24.738Z,4.20
2022-10-22T02:05:56.129Z,4.35
2022-10-22T02:08:31.254Z,4.55
2022-10-22T02:11:02.669Z,4.43
2022-10-22T02:13:41.296Z,4.68
2022-10-22T02:16:12.842Z,4.18
2022-10-22T02:18:57.753Z,4.63
2022-10-22T02:21:27.826Z,3.97
2022-10-22T02:23:54.757Z,4.18
2022-10-22T02:26:46.817Z,4.78
2022-10-22T02:29:32.002Z,4.85
2022-10-22T02:32:04.261Z,4.78
2022-10-22T02:37:06.508Z,4.10
2022-10-22T02:39:41.067Z,4.43
2022-10-22T02:42:14.734Z,3.58
2022-10-22T02:44:45.878Z,3.92
2022-10-22T02:47:18.496Z,4.18
2022-10-22T02:49:53.114Z,4.03
2022-10-22T02:52:19.749Z,4.22
2022-10-22T02:54:49.559Z,3.85
2022-10-22T02:57:16.740Z,4.05
2022-10-22T02:59:43.420Z,3.90
2022-10-22T03:02:10.125Z,3.78
2022-10-22T03:04:36.847Z,3.85
2022-10-22T03:07:03.694Z,4.15
2022-10-22T03:09:30.594Z,4.10
2022-10-22T03:12:00.245Z,3.63
2022-10-22T03:14:26.901Z,4.00
2022-10-22T03:16:59.729Z,3.88
2022-10-22T03:19:27.494Z,4.13
2022-10-22T03:22:01.379Z,4.32
2022-10-22T03:24:50.508Z,3.55
2022-10-22T03:27:24.690Z,4.22
2022-10-22T03:29:54.305Z,3.58
2022-10-22T03:32:21.028Z,3.42
2022-10-22T03:34:48.106Z,4.20
2022-10-22T03:37:14.912Z,3.80
2022-10-22T03:39:42.065Z,4.05
2022-10-22T03:42:15.870Z,3.72
2022-10-22T03:44:42.505Z,4.13
2022-10-22T03:47:18.598Z,3.90
2022-10-22T03:49:48.298Z,3.78
2022-10-22T03:52:15.369Z,3.90
2022-10-22T03:54:42.821Z,3.80
2022-10-22T03:57:10.475Z,3.88
2022-10-22T03:59:44.865Z,4.10
2022-10-22T04:02:13.530Z,4.03
2022-10-22T04:04:40.715Z,3.88
2022-10-22T04:07:11.974Z,3.92
2022-10-22T04:09:41.638Z,3.67
2022-10-22T04:12:09.612Z,4.05
2022-10-22T04:14:36.688Z,3.38
2022-10-22T04:17:03.719Z,4.00
2022-10-22T04:19:30.631Z,3.72
2022-10-22T04:22:00.871Z,3.60
2022-10-22T04:24:34.613Z,3.30
2022-10-22T04:27:01.491Z,3.08
2022-10-22T04:29:37.429Z,4.05
2022-10-22T04:32:04.588Z,3.47
2022-10-22T04:34:31.494Z,3.58
2022-10-22T04:36:58.174Z,4.03
2022-10-22T04:39:27.932Z,3.67
2022-10-22T04:41:54.666Z,3.75
2022-10-22T04:44:21.499Z,3.55
2022-10-22T04:46:54.324Z,3.60
2022-10-22T04:49:21.091Z,3.72
2022-10-22T04:51:48.975Z,3.67
2022-10-22T04:54:15.900Z,3.80
2022-10-22T04:56:44.427Z,3.60
2022-10-22T04:59:15.748Z,3.28
2022-10-22T05:01:47.393Z,3.83
2022-10-22T05:04:16.339Z,3.65
2022-10-22T05:06:44.375Z,3.58
2022-10-22T05:09:16.321Z,3.90
2022-10-22T05:11:48.911Z,3.88
2022-10-22T05:14:44.678Z,4.22
2022-10-22T05:17:12.562Z,4.35
2022-10-22T05:19:39.217Z,4.05
2022-10-22T05:22:08.975Z,3.70
2022-10-22T05:24:40.871Z,3.90
2022-10-22T05:27:08.936Z,3.83
2022-10-22T05:29:37.025Z,3.97
2022-10-22T05:32:06.462Z,4.10
2022-10-22T05:34:36.205Z,3.97
2022-10-22T05:37:07.360Z,3.92
2022-10-22T05:39:40.360Z,3.95
2022-10-22T05:42:07.114Z,4.00
2022-10-22T05:44:34.058Z,4.30
2022-10-22T05:47:02.840Z,4.10
2022-10-22T05:49:29.737Z,3.65
2022-10-22T05:51:58.249Z,3.70
2022-10-22T05:54:34.423Z,3.90
2022-10-22T05:57:01.285Z,3.88
2022-10-22T05:59:28.357Z,4.25
2022-10-22T06:01:59.802Z,3.65
2022-10-22T06:04:30.736Z,4.00
2022-10-22T06:06:58.157Z,4.13
2022-10-22T06:09:33.919Z,3.80
2022-10-22T06:12:00.626Z,4.15
2022-10-22T06:14:32.775Z,4.32
2022-10-22T06:17:00.392Z,4.43
2022-10-22T06:19:29.945Z,3.85
2022-10-22T06:21:56.731Z,4.38
2022-10-22T06:24:24.348Z,4.25
2022-10-22T06:26:52.066Z,3.67
2022-10-22T06:29:18.878Z,4.13
2022-10-22T06:31:45.592Z,3.92
2022-10-22T06:34:21.515Z,4.07
2022-10-22T06:36:55.033Z,4.30
2022-10-22T06:39:21.849Z,4.47
2022-10-22T06:41:57.888Z,4.50
2022-10-22T06:44:24.766Z,3.83
2022-10-22T06:46:52.633Z,4.03
2022-10-22T06:49:21.507Z,4.30
2022-10-22T06:51:58.589Z,4.30
2022-10-22T06:54:25.262Z,3.78
2022-10-22T06:56:51.973Z,3.83
2022-10-22T06:59:18.697Z,3.90
2022-10-22T07:01:45.444Z,4.30
2022-10-22T07:04:13.265Z,4.53
2022-10-22T07:06:41.117Z,4.05
2022-10-22T07:09:08.268Z,4.05
2022-10-22T07:11:45.677Z,3.38
2022-10-22T07:14:13.232Z,4.07
2022-10-22T07:16:43.347Z,4.03
2022-10-22T07:19:10.067Z,3.53
2022-10-22T07:21:36.879Z,3.42
2022-10-22T07:24:07.175Z,3.55
2022-10-22T07:26:33.911Z,3.85
2022-10-22T07:29:01.145Z,3.58
2022-10-22T07:31:30.320Z,3.55
2022-10-22T07:33:58.567Z,3.45
2022-10-22T07:36:26.161Z,3.50
2022-10-22T07:38:58.344Z,3.42
2022-10-22T07:43:52.990Z,3.08
2022-10-22T07:46:20.835Z,3.78
2022-10-22T07:48:49.595Z,2.90
2022-10-22T07:51:17.290Z,3.30
2022-10-22T07:53:47.066Z,3.30
2022-10-22T07:56:14.186Z,3.10
2022-10-22T07:58:41.767Z,3.40
2022-10-22T08:01:08.745Z,3.45
2022-10-22T08:03:36.086Z,3.35
2022-10-22T08:06:03.024Z,3.35
2022-10-22T08:08:33.682Z,3.47
2022-10-22T08:11:02.324Z,3.42
2022-10-22T08:13:30.930Z,3.78
2022-10-22T08:16:00.657Z,3.10
2022-10-22T08:18:28.276Z,3.60
2022-10-22T08:20:55.278Z,4.13
2022-10-22T08:23:25.947Z,3.78
2022-10-22T08:25:56.705Z,3.40
2022-10-22T08:28:23.761Z,3.30
2022-10-22T08:30:50.785Z,3.75
2022-10-22T08:33:20.683Z,3.00
2022-10-22T08:35:52.081Z,3.70
2022-10-22T08:38:19.610Z,3.35
2022-10-22T08:40:53.114Z,3.20
2022-10-22T08:44:03.881Z,3.10
2022-10-22T08:46:59.478Z,3.35
2022-10-22T08:49:38.384Z,3.33
2022-10-22T08:52:14.676Z,3.17
2022-10-22T08:54:53.086Z,3.63
2022-10-22T08:57:36.513Z,3.53
2022-10-22T09:00:36.824Z,3.72
2022-10-22T09:03:06.739Z,3.72
2022-10-22T09:05:36.954Z,4.00
2022-10-22T09:08:05.468Z,4.30
2022-10-22T09:14:18.291Z,4.45
2022-10-22T09:17:06.708Z,3.78
2022-10-22T09:20:11.085Z,4.55
2022-10-22T09:22:54.853Z,4.05
2022-10-22T09:25:27.433Z,3.92
2022-10-22T09:27:58.432Z,4.05
2022-10-22T09:30:37.939Z,4.20
2022-10-22T09:33:20.254Z,4.80
2022-10-22T09:36:05.855Z,4.78
2022-10-22T09:38:39.546Z,5.03
2022-10-22T09:41:06.772Z,4.43
2022-10-22T09:43:36.195Z,5.22
2022-10-22T09:46:06.073Z,4.82
2022-10-22T09:48:42.016Z,4.78
2022-10-22T09:51:21.833Z,5.28
2022-10-22T09:53:57.750Z,5.47
2022-10-22T09:56:36.305Z,5.30
2022-10-22T09:59:06.792Z,5.35
2022-10-22T10:01:40.995Z,5.45
2022-10-22T10:04:16.710Z,5.50
2022-10-22T10:06:45.310Z,4.68
2022-10-22T10:09:19.429Z,5.55
2022-10-22T10:11:53.550Z,6.00
2022-10-22T10:14:38.863Z,5.25
2022-10-22T10:17:11.875Z,6.15
2022-10-22T10:20:05.778Z,5.20
2022-10-22T10:22:50.873Z,5.32
2022-10-22T10:25:55.481Z,5.18
2022-10-22T10:28:57.963Z,4.90
2022-10-22T10:31:49.004Z,5.38
2022-10-22T10:34:44.027Z,5.60
2022-10-22T10:37:41.390Z,5.10
2022-10-22T10:40:28.506Z,5.03
2022-10-22T10:43:06.846Z,4.97
2022-10-22T10:45:55.782Z,5.35
2022-10-22T10:48:22.781Z,5.35
2022-10-22T10:51:15.438Z,5.05
2022-10-22T10:53:47.599Z,4.97
2022-10-22T10:58:53.458Z,5.38
2022-10-22T11:01:51.401Z,5.38
2022-10-22T11:04:41.816Z,4.57
2022-10-22T11:07:33.551Z,4.85
2022-10-22T11:10:09.775Z,4.90
2022-10-22T11:12:44.618Z,4.32
2022-10-22T11:15:23.705Z,5.25
2022-10-22T11:17:56.184Z,4.53
2022-10-22T11:20:40.314Z,4.43
2022-10-22T11:23:37.003Z,4.35
2022-10-22T11:26:11.572Z,5.10
2022-10-22T11:28:52.837Z,4.68
2022-10-22T11:31:20.661Z,5.28
2022-10-22T11:34:32.159Z,4.85
2022-10-22T11:36:58.737Z,4.53
2022-10-22T11:40:04.021Z,5.03
2022-10-22T11:42:44.927Z,5.35
2022-10-22T11:45:15.323Z,4.30
2022-10-22T11:47:57.103Z,5.22
2022-10-22T11:50:29.398Z,4.90
2022-10-22T11:53:08.026Z,4.65
2022-10-22T11:55:49.338Z,5.22
2022-10-22T11:58:39.443Z,5.32
2022-10-22T12:01:12.305Z,4.90
2022-10-22T12:03:52.793Z,4.72
2022-10-22T12:06:23.432Z,4.97
2022-10-22T12:08:53.157Z,4.80
2022-10-22T12:11:48.663Z,5.28
2022-10-22T12:14:35.077Z,5.53
2022-10-22T12:17:12.754Z,5.25
2022-10-22T12:19:47.268Z,4.80
2022-10-22T12:22:28.347Z,5.05
2022-10-22T12:24:57.889Z,5.70
2022-10-22T12:27:41.274Z,5.18
2022-10-22T12:30:37.298Z,5.07
2022-10-22T12:33:18.376Z,5.13
2022-10-22T12:35:46.677Z,5.18
2022-10-22T12:38:18.807Z,5.55
2022-10-22T12:43:27.990Z,7.22
2022-10-22T12:45:58.222Z,5.70
2022-10-22T12:48:34.662Z,5.68
2022-10-22T12:51:04.799Z,6.13
2022-10-22T12:53:43.677Z,5.35
2022-10-22T12:56:17.108Z,6.00
2022-10-22T12:58:58.108Z,5.53
2022-10-22T13:01:34.603Z,6.00
2022-10-22T13:04:31.060Z,5.38
2022-10-22T13:07:19.879Z,5.60
2022-10-22T13:09:59.139Z,5.50
2022-10-22T13:12:36.336Z,5.25
2022-10-22T13:15:41.560Z,4.40
2022-10-22T13:18:33.799Z,5.60
2022-10-22T13:21:04.511Z,5.15
2022-10-22T13:23:33.965Z,4.68
2022-10-22T13:26:16.538Z,4.95
2022-10-22T13:28:50.598Z,5.15
2022-10-22T13:31:25.395Z,4.82
2022-10-22T13:33:57.999Z,5.20
2022-10-22T13:36:25.097Z,4.70
2022-10-22T13:38:52.340Z,4.70
2022-10-22T13:41:27.562Z,5.20
2022-10-22T13:43:55.417Z,5.85
2022-10-22T13:46:23.813Z,4.50
2022-10-22T13:48:53.902Z,4.40
2022-10-22T13:51:31.510Z,4.82
2022-10-22T13:53:58.443Z,5.00
2022-10-22T13:56:26.156Z,5.60
2022-10-22T14:02:22.273Z,4.57
2022-10-22T14:05:03.533Z,5.07
2022-10-22T14:07:58.237Z,4.43
2022-10-22T14:10:32.112Z,4.72
2022-10-22T14:13:31.158Z,4.55
2022-10-22T14:16:29.219Z,4.68
2022-10-22T14:19:26.088Z,4.40
2022-10-22T14:21:57.209Z,5.20
2022-10-22T14:24:23.951Z,5.13
2022-10-22T14:26:50.786Z,6.43
2022-10-22T14:29:17.563Z,4.90
2022-10-22T14:31:46.735Z,4.93
2022-10-22T14:34:17.349Z,6.57
2022-10-22T14:36:45.795Z,4.60
2022-10-22T14:39:20.433Z,4.63
2022-10-22T14:41:47.786Z,7.57
2022-10-22T14:44:20.252Z,5.60
2022-10-22T14:46:48.286Z,5.70
2022-10-22T14:49:24.336Z,6.85
2022-10-22T14:51:52.005Z,5.07
2022-10-22T14:54:20.036Z,5.88
2022-10-22T14:56:46.856Z,7.22
2022-10-22T14:59:13.595Z,5.97
2022-10-22T15:01:46.076Z,8.45
2022-10-22T15:04:14.090Z,8.65
2022-10-22T15:06:41.175Z,6.95
2022-10-22T15:09:08.158Z,8.50
2022-10-22T15:11:35.118Z,5.72
2022-10-22T15:14:01.938Z,5.43
2022-10-22T15:16:30.021Z,9.05
2022-10-22T15:18:59.984Z,8.80
2022-10-22T15:21:27.455Z,9.88
2022-10-22T15:23:55.187Z,7.15
2022-10-22T15:26:24.282Z,6.15
2022-10-22T15:28:51.082Z,9.55
2022-10-22T15:31:45.652Z,11.75
2022-10-22T15:34:13.110Z,6.43
2022-10-22T15:36:42.997Z,9.57
2022-10-22T15:39:12.725Z,10.60
2022-10-22T15:41:39.977Z,9.82
2022-10-22T15:44:08.760Z,6.88
2022-10-22T15:46:36.085Z,6.75
2022-10-22T15:49:03.165Z,8.85
2022-10-22T15:51:29.982Z,6.88
2022-10-22T15:53:59.013Z,8.52
2022-10-22T15:56:28.994Z,9.27
2022-10-22T15:59:03.041Z,8.63
2022-10-22T16:01:31.674Z,6.45
2022-10-22T16:04:03.612Z,8.65
2022-10-22T16:06:31.715Z,6.15
2022-10-22T16:09:01.198Z,7.15
2022-10-22T16:11:30.953Z,7.10
2022-10-22T16:13:59.418Z,8.95
2022-10-22T16:16:33.318Z,6.38
2022-10-22T16:19:10.201Z,8.98
2022-10-22T16:21:36.957Z,8.73
2022-10-22T16:24:07.954Z,14.30
2022-10-22T16:26:35.995Z,9.57
2022-10-22T16:29:07.355Z,12.55
2022-10-22T16:31:34.700Z,8.35
2022-10-22T16:34:09.857Z,9.52
2022-10-22T16:36:37.565Z,8.80
2022-10-22T16:39:06.600Z,9.55
2022-10-22T16:41:37.114Z,8.80
2022-10-22T16:44:07.808Z,9.82
2022-10-22T16:46:38.724Z,9.27
2022-10-22T16:49:08.784Z,9.20
2022-10-22T16:51:37.160Z,8.80
2022-10-22T16:54:06.800Z,9.88
2022-10-22T16:56:36.743Z,8.80
2022-10-22T16:59:03.694Z,9.48
2022-10-22T17:01:36.739Z,8.55
2022-10-22T17:04:06.413Z,8.55
2022-10-22T17:06:33.152Z,9.30
2022-10-22T17:09:00.165Z,9.07
2022-10-22T17:11:30.163Z,9.55
2022-10-22T17:13:57.291Z,7.50
2022-10-22T17:16:28.068Z,8.40
2022-10-22T17:18:57.721Z,7.68
2022-10-22T17:21:26.017Z,8.48
2022-10-22T17:23:57.342Z,10.43
2022-10-22T17:26:27.034Z,10.68
2022-10-22T17:28:56.733Z,9.80
2022-10-22T17:31:41.769Z,7.93
2022-10-22T17:34:17.605Z,8.38
2022-10-22T17:36:45.174Z,9.18
2022-10-22T17:39:17.632Z,7.22
2022-10-22T17:41:50.194Z,12.13
2022-10-22T17:44:19.133Z,10.90
2022-10-22T17:46:46.181Z,7.85
2022-10-22T17:49:17.505Z,7.78
2022-10-22T17:51:44.455Z,9.85
2022-10-22T17:54:15.037Z,10.50
2022-10-22T17:56:42.040Z,10.75
2022-10-22T17:59:12.629Z,11.00
2022-10-22T18:01:47.435Z,7.80
2022-10-22T18:04:16.519Z,11.00
2022-10-22T18:06:43.440Z,9.85
2022-10-22T18:09:18.305Z,11.13
2022-10-22T18:11:46.620Z,11.05
2022-10-22T18:14:13.595Z,9.55
2022-10-22T18:16:43.086Z,6.97
2022-10-22T18:19:25.318Z,9.30
2022-10-22T18:21:55.010Z,8.48
2022-10-22T18:24:21.860Z,7.07
2022-10-22T18:26:49.619Z,7.15
2022-10-22T18:29:18.504Z,7.10
2022-10-22T18:31:45.917Z,7.28
2022-10-22T18:34:12.711Z,10.27
2022-10-22T18:36:40.373Z,10.65
2022-10-22T18:39:07.584Z,9.93
2022-10-22T18:41:36.019Z,10.30
2022-10-22T18:44:07.743Z,8.27
2022-10-22T18:46:38.367Z,7.90
2022-10-22T18:49:07.210Z,8.65
2022-10-22T18:51:37.480Z,7.28
2022-10-22T18:54:11.591Z,9.98
2022-10-22T18:56:45.078Z,9.85
2022-10-22T18:59:23.408Z,10.18
2022-10-22T19:01:53.617Z,10.27
2022-10-22T19:04:23.803Z,8.07
2022-10-22T19:06:53.614Z,8.25
2022-10-22T19:09:20.448Z,10.32
2022-10-22T19:11:51.318Z,9.27
2022-10-22T19:14:22.672Z,8.65
2022-10-22T19:16:50.980Z,8.00
2022-10-22T19:19:20.340Z,9.52
2022-10-22T19:21:47.380Z,10.00
2022-10-22T19:24:15.859Z,8.40
2022-10-22T19:26:42.849Z,10.27
2022-10-22T19:29:14.650Z,9.80
2022-10-22T19:31:43.279Z,10.05
2022-10-22T19:34:13.520Z,11.38
2022-10-22T19:36:41.743Z,11.35
2022-10-22T19:39:15.376Z,11.25
2022-10-22T19:41:45.100Z,11.07
2022-10-22T19:44:12.968Z,10.02
2022-10-22T19:46:43.354Z,12.15
2022-10-22T19:49:11.330Z,11.60
2022-10-22T19:51:40.281Z,11.32
2022-10-22T19:54:11.852Z,11.60
2022-10-22T19:56:42.235Z,10.45
2022-10-22T19:59:09.648Z,11.07
2022-10-22T20:01:44.102Z,11.20
2022-10-22T20:04:15.334Z,12.60
2022-10-22T20:06:42.734Z,11.23
2022-10-22T20:09:13.786Z,11.95
2022-10-22T20:11:44.075Z,11.65
2022-10-22T20:14:13.221Z,8.70
2022-10-22T20:16:40.401Z,11.20
2022-10-22T20:19:08.819Z,11.32
2022-10-22T20:21:38.187Z,11.68
2022-10-22T20:24:23.052Z,11.82
2022-10-22T20:26:52.865Z,11.20
2022-10-22T20:29:20.839Z,8.38
2022-10-22T20:31:47.866Z,13.00
2022-10-22T20:34:14.798Z,10.57
2022-10-22T20:36:41.772Z,11.68
2022-10-22T20:39:15.321Z,11.70
2022-10-22T20:41:42.472Z,8.80
2022-10-22T20:44:15.447Z,11.02
2022-10-22T20:46:45.692Z,11.45
2022-10-22T20:49:17.499Z,12.10
2022-10-22T20:51:47.474Z,10.13
2022-10-22T20:54:15.545Z,11.98
2022-10-22T20:56:44.177Z,12.98
2022-10-22T20:59:21.806Z,12.10
2022-10-22T21:01:52.885Z,8.35
2022-10-22T21:04:21.533Z,11.82
2022-10-22T21:06:50.412Z,9.35
2022-10-22T21:09:18.385Z,11.35
2022-10-22T21:11:46.001Z,12.02
2022-10-22T21:14:14.536Z,12.65
2022-10-22T21:16:45.494Z,11.40
2022-10-22T21:19:13.084Z,11.75
2022-10-22T21:21:42.929Z,11.40
2022-10-22T21:24:10.006Z,12.35
2022-10-22T21:26:39.363Z,12.80
2022-10-22T21:29:07.450Z,9.15
2022-10-22T21:31:34.684Z,12.13
2022-10-22T21:34:01.483Z,11.75
2022-10-22T21:36:28.398Z,8.10
2022-10-22T21:38:55.304Z,12.55
2022-10-22T21:41:25.393Z,12.45
2022-10-22T21:43:52.226Z,12.88
2022-10-22T21:46:22.065Z,12.43
2022-10-22T21:48:55.987Z,12.90
2022-10-22T21:51:24.354Z,13.48
2022-10-22T21:56:22.491Z,12.63
2022-10-22T21:58:49.462Z,12.10
2022-10-22T22:01:17.406Z,9.13
2022-10-22T22:03:47.901Z,8.65
2022-10-22T22:06:22.026Z,12.02
2022-10-22T22:08:49.847Z,10.95
2022-10-22T22:11:20.210Z,12.02
2022-10-22T22:13:51.716Z,11.90
2022-10-22T22:16:27.264Z,11.98
2022-10-22T22:19:05.791Z,12.40
2022-10-22T22:21:33.847Z,11.70
2022-10-22T22:24:02.595Z,12.18
2022-10-22T22:26:30.467Z,12.13
2022-10-22T22:28:59.005Z,11.52
2022-10-22T22:31:35.333Z,11.35
2022-10-22T22:34:04.693Z,8.90
2022-10-22T22:36:40.373Z,11.50
2022-10-22T22:39:10.463Z,8.40
2022-10-22T22:41:38.365Z,8.80
2022-10-22T22:44:05.402Z,11.40
2022-10-22T22:46:32.698Z,10.63
2022-10-22T22:49:01.271Z,9.40
2022-10-22T22:51:28.177Z,11.15
2022-10-22T22:53:57.957Z,10.85
2022-10-22T22:56:26.945Z,9.52
2022-10-22T22:58:53.820Z,10.48
2022-10-22T23:01:30.535Z,8.20
2022-10-22T23:04:16.448Z,10.07
2022-10-22T23:06:43.754Z,9.38
2022-10-22T23:09:12.732Z,10.15
2022-10-22T23:11:40.803Z,8.65
2022-10-22T23:14:08.551Z,7.95
2022-10-22T23:16:39.851Z,10.63
2022-10-22T23:19:07.385Z,8.43
2022-10-22T23:21:37.630Z,11.55
2022-10-22T23:24:13.128Z,9.95
2022-10-22T23:26:46.865Z,8.70
2022-10-22T23:29:20.892Z,9.50
2022-10-22T23:31:49.124Z,9.75
2022-10-22T23:34:21.979Z,10.18
2022-10-22T23:36:49.121Z,9.77
2022-10-22T23:39:19.144Z,10.10
2022-10-22T23:41:49.086Z,9.73
2022-10-22T23:44:16.029Z,10.18
2022-10-22T23:46:43.100Z,9.70
2022-10-22T23:49:11.204Z,10.68
2022-10-22T23:51:38.700Z,9.25
2022-10-22T23:54:09.230Z,10.10
2022-10-22T23:56:36.309Z,10.35
2022-10-22T23:59:06.042Z,8.40
